sensor_id;sensor_type;location;lat;lon;timestamp;temperature;humidity
39779;DHT22;25454;49.878;8.618;2023-06-04T00:01:48;15.00;67.70
39779;DHT22;25454;49.878;8.618;2023-06-04T00:06:51;14.90;67.90
39779;DHT22;25454;49.878;8.618;2023-06-04T00:11:52;14.90;68.00
39779;DHT22;25454;49.878;8.618;2023-06-04T00:16:53;14.80;68.00
39779;DHT22;25454;49.878;8.618;2023-06-04T00:21:54;14.80;68.00
39779;DHT22;25454;49.878;8.618;2023-06-04T00:26:55;14.80;68.00
39779;DHT22;25454;49.878;8.618;2023-06-04T00:31:55;14.80;68.20
39779;DHT22;25454;49.878;8.618;2023-06-04T00:36:56;14.70;68.30
39779;DHT22;25454;49.878;8.618;2023-06-04T00:41:56;14.60;68.60
39779;DHT22;25454;49.878;8.618;2023-06-04T00:46:57;14.50;68.70
39779;DHT22;25454;49.878;8.618;2023-06-04T00:51:58;14.50;68.90
39779;DHT22;25454;49.878;8.618;2023-06-04T00:56:59;14.40;69.00
39779;DHT22;25454;49.878;8.618;2023-06-04T01:02:07;14.30;68.70
39779;DHT22;25454;49.878;8.618;2023-06-04T01:07:10;14.40;68.50
39779;DHT22;25454;49.878;8.618;2023-06-04T01:12:13;14.30;68.20
39779;DHT22;25454;49.878;8.618;2023-06-04T01:17:19;14.40;67.90
39779;DHT22;25454;49.878;8.618;2023-06-04T01:22:35;14.40;68.70
39779;DHT22;25454;49.878;8.618;2023-06-04T01:27:36;14.30;68.30
39779;DHT22;25454;49.878;8.618;2023-06-04T01:32:37;14.30;68.50
39779;DHT22;25454;49.878;8.618;2023-06-04T01:37:38;14.20;68.70
39779;DHT22;25454;49.878;8.618;2023-06-04T01:42:40;14.10;69.00
39779;DHT22;25454;49.878;8.618;2023-06-04T01:47:40;14.10;69.00
39779;DHT22;25454;49.878;8.618;2023-06-04T01:52:41;14.10;68.90
39779;DHT22;25454;49.878;8.618;2023-06-04T01:57:43;14.00;68.60
39779;DHT22;25454;49.878;8.618;2023-06-04T02:02:47;14.00;68.80
39779;DHT22;25454;49.878;8.618;2023-06-04T02:07:51;14.00;69.10
39779;DHT22;25454;49.878;8.618;2023-06-04T02:12:59;13.90;69.10
39779;DHT22;25454;49.878;8.618;2023-06-04T02:18:16;13.80;69.10
39779;DHT22;25454;49.878;8.618;2023-06-04T02:23:18;13.80;69.60
39779;DHT22;25454;49.878;8.618;2023-06-04T02:28:20;13.80;69.20
39779;DHT22;25454;49.878;8.618;2023-06-04T02:33:21;13.80;69.30
39779;DHT22;25454;49.878;8.618;2023-06-04T02:38:21;13.70;69.50
39779;DHT22;25454;49.878;8.618;2023-06-04T02:43:22;13.70;69.90
39779;DHT22;25454;49.878;8.618;2023-06-04T02:48:22;13.60;70.10
39779;DHT22;25454;49.878;8.618;2023-06-04T02:53:23;13.50;69.80
39779;DHT22;25454;49.878;8.618;2023-06-04T02:58:25;13.50;70.00
39779;DHT22;25454;49.878;8.618;2023-06-04T03:03:25;13.50;70.10
39779;DHT22;25454;49.878;8.618;2023-06-04T03:08:27;13.50;70.60
39779;DHT22;25454;49.878;8.618;2023-06-04T03:13:27;13.40;70.50
39779;DHT22;25454;49.878;8.618;2023-06-04T03:18:28;13.30;70.90
39779;DHT22;25454;49.878;8.618;2023-06-04T03:23:29;13.30;70.80
39779;DHT22;25454;49.878;8.618;2023-06-04T03:28:31;13.30;70.90
39779;DHT22;25454;49.878;8.618;2023-06-04T03:33:31;13.40;71.20
39779;DHT22;25454;49.878;8.618;2023-06-04T03:38:32;13.40;71.10
39779;DHT22;25454;49.878;8.618;2023-06-04T03:43:33;13.30;70.70
39779;DHT22;25454;49.878;8.618;2023-06-04T03:48:33;13.30;70.80
39779;DHT22;25454;49.878;8.618;2023-06-04T03:53:34;13.30;71.10
39779;DHT22;25454;49.878;8.618;2023-06-04T03:58:35;13.40;70.70
39779;DHT22;25454;49.878;8.618;2023-06-04T04:03:36;13.50;70.30
39779;DHT22;25454;49.878;8.618;2023-06-04T04:08:37;13.50;70.10
39779;DHT22;25454;49.878;8.618;2023-06-04T04:13:44;13.60;69.70
39779;DHT22;25454;49.878;8.618;2023-06-04T04:18:45;13.70;69.70
39779;DHT22;25454;49.878;8.618;2023-06-04T04:23:46;13.80;69.90
39779;DHT22;25454;49.878;8.618;2023-06-04T04:28:47;13.90;69.80
39779;DHT22;25454;49.878;8.618;2023-06-04T04:33:47;14.00;69.70
39779;DHT22;25454;49.878;8.618;2023-06-04T04:38:48;14.30;69.10
39779;DHT22;25454;49.878;8.618;2023-06-04T04:43:54;14.60;68.00
39779;DHT22;25454;49.878;8.618;2023-06-04T04:49:02;14.70;67.60
39779;DHT22;25454;49.878;8.618;2023-06-04T04:54:03;14.70;67.70
39779;DHT22;25454;49.878;8.618;2023-06-04T04:59:04;14.80;67.30
39779;DHT22;25454;49.878;8.618;2023-06-04T05:04:04;15.10;66.40
39779;DHT22;25454;49.878;8.618;2023-06-04T05:09:05;17.00;61.00
39779;DHT22;25454;49.878;8.618;2023-06-04T05:14:05;18.70;56.90
39779;DHT22;25454;49.878;8.618;2023-06-04T05:19:07;20.20;54.20
39779;DHT22;25454;49.878;8.618;2023-06-04T05:24:09;21.20;51.40
39779;DHT22;25454;49.878;8.618;2023-06-04T05:29:10;21.20;50.80
39779;DHT22;25454;49.878;8.618;2023-06-04T05:34:10;21.80;49.60
39779;DHT22;25454;49.878;8.618;2023-06-04T05:39:19;22.10;48.90
39779;DHT22;25454;49.878;8.618;2023-06-04T05:44:20;22.70;48.10
39779;DHT22;25454;49.878;8.618;2023-06-04T05:49:21;23.20;46.70
39779;DHT22;25454;49.878;8.618;2023-06-04T05:54:28;23.60;46.30
39779;DHT22;25454;49.878;8.618;2023-06-04T05:59:32;23.70;45.20
39779;DHT22;25454;49.878;8.618;2023-06-04T06:04:32;23.60;45.30
39779;DHT22;25454;49.878;8.618;2023-06-04T06:09:33;23.70;45.00
39779;DHT22;25454;49.878;8.618;2023-06-04T06:14:34;24.00;45.50
39779;DHT22;25454;49.878;8.618;2023-06-04T06:19:36;24.20;44.90
39779;DHT22;25454;49.878;8.618;2023-06-04T06:24:37;24.70;43.90
39779;DHT22;25454;49.878;8.618;2023-06-04T06:29:37;25.50;42.40
39779;DHT22;25454;49.878;8.618;2023-06-04T06:34:39;25.90;41.40
39779;DHT22;25454;49.878;8.618;2023-06-04T06:39:40;26.00;41.20
39779;DHT22;25454;49.878;8.618;2023-06-04T06:44:40;26.50;40.30
39779;DHT22;25454;49.878;8.618;2023-06-04T06:49:41;26.30;39.80
39779;DHT22;25454;49.878;8.618;2023-06-04T06:54:41;27.40;39.30
39779;DHT22;25454;49.878;8.618;2023-06-04T06:59:42;27.90;37.60
39779;DHT22;25454;49.878;8.618;2023-06-04T07:04:44;27.70;37.60
39779;DHT22;25454;49.878;8.618;2023-06-04T07:09:44;27.70;37.50
39779;DHT22;25454;49.878;8.618;2023-06-04T07:14:45;28.40;37.10
39779;DHT22;25454;49.878;8.618;2023-06-04T07:19:46;28.10;37.50
39779;DHT22;25454;49.878;8.618;2023-06-04T07:24:46;28.00;37.40
39779;DHT22;25454;49.878;8.618;2023-06-04T07:29:47;27.70;37.60
39779;DHT22;25454;49.878;8.618;2023-06-04T07:34:47;26.80;39.00
39779;DHT22;25454;49.878;8.618;2023-06-04T07:39:48;26.60;40.00
39779;DHT22;25454;49.878;8.618;2023-06-04T07:44:49;27.20;39.70
39779;DHT22;25454;49.878;8.618;2023-06-04T07:49:50;27.40;38.70
39779;DHT22;25454;49.878;8.618;2023-06-04T07:54:51;28.60;37.60
39779;DHT22;25454;49.878;8.618;2023-06-04T07:59:51;28.50;37.70
39779;DHT22;25454;49.878;8.618;2023-06-04T08:04:52;28.20;37.30
39779;DHT22;25454;49.878;8.618;2023-06-04T08:09:53;28.80;37.90
39779;DHT22;25454;49.878;8.618;2023-06-04T08:14:53;30.00;36.40
39779;DHT22;25454;49.878;8.618;2023-06-04T08:19:57;29.60;35.90
39779;DHT22;25454;49.878;8.618;2023-06-04T08:24:58;29.80;34.90
39779;DHT22;25454;49.878;8.618;2023-06-04T08:29:58;29.40;34.80
39779;DHT22;25454;49.878;8.618;2023-06-04T08:34:59;30.00;35.00
39779;DHT22;25454;49.878;8.618;2023-06-04T08:39:59;30.40;34.90
39779;DHT22;25454;49.878;8.618;2023-06-04T08:45:00;30.90;34.60
39779;DHT22;25454;49.878;8.618;2023-06-04T08:50:02;31.70;34.50
39779;DHT22;25454;49.878;8.618;2023-06-04T08:55:03;32.10;32.20
39779;DHT22;25454;49.878;8.618;2023-06-04T09:00:04;32.40;32.00
39779;DHT22;25454;49.878;8.618;2023-06-04T09:05:07;32.30;32.70
39779;DHT22;25454;49.878;8.618;2023-06-04T09:10:09;32.80;32.20
39779;DHT22;25454;49.878;8.618;2023-06-04T09:15:13;33.00;31.50
39779;DHT22;25454;49.878;8.618;2023-06-04T09:20:24;33.40;30.50
39779;DHT22;25454;49.878;8.618;2023-06-04T09:25:26;33.10;30.80
39779;DHT22;25454;49.878;8.618;2023-06-04T09:30:27;33.50;30.60
39779;DHT22;25454;49.878;8.618;2023-06-04T09:35:27;33.50;30.20
39779;DHT22;25454;49.878;8.618;2023-06-04T09:40:38;32.30;32.10
39779;DHT22;25454;49.878;8.618;2023-06-04T09:45:38;31.30;32.30
39779;DHT22;25454;49.878;8.618;2023-06-04T09:50:39;31.50;32.90
39779;DHT22;25454;49.878;8.618;2023-06-04T09:55:42;33.10;30.80
39779;DHT22;25454;49.878;8.618;2023-06-04T10:00:45;33.40;29.80
39779;DHT22;25454;49.878;8.618;2023-06-04T10:05:46;32.10;31.90
39779;DHT22;25454;49.878;8.618;2023-06-04T10:10:47;31.80;30.00
39779;DHT22;25454;49.878;8.618;2023-06-04T10:15:50;32.40;29.60
39779;DHT22;25454;49.878;8.618;2023-06-04T10:20:54;32.70;29.30
39779;DHT22;25454;49.878;8.618;2023-06-04T10:25:55;32.90;29.10
39779;DHT22;25454;49.878;8.618;2023-06-04T10:30:56;33.60;29.50
39779;DHT22;25454;49.878;8.618;2023-06-04T10:35:57;35.90;27.60
39779;DHT22;25454;49.878;8.618;2023-06-04T10:40:58;35.60;27.20
39779;DHT22;25454;49.878;8.618;2023-06-04T10:45:58;35.80;27.20
39779;DHT22;25454;49.878;8.618;2023-06-04T10:51:11;34.60;27.60
39779;DHT22;25454;49.878;8.618;2023-06-04T10:56:11;33.60;28.20
39779;DHT22;25454;49.878;8.618;2023-06-04T11:01:26;33.10;28.60
39779;DHT22;25454;49.878;8.618;2023-06-04T11:06:27;34.10;29.20
39779;DHT22;25454;49.878;8.618;2023-06-04T11:11:28;35.00;26.80
39779;DHT22;25454;49.878;8.618;2023-06-04T11:16:32;34.90;26.80
39779;DHT22;25454;49.878;8.618;2023-06-04T11:21:34;35.40;26.20
39779;DHT22;25454;49.878;8.618;2023-06-04T11:26:37;34.40;27.10
39779;DHT22;25454;49.878;8.618;2023-06-04T11:31:45;35.70;26.40
39779;DHT22;25454;49.878;8.618;2023-06-04T11:36:46;35.40;26.60
39779;DHT22;25454;49.878;8.618;2023-06-04T11:41:47;32.70;29.10
39779;DHT22;25454;49.878;8.618;2023-06-04T11:46:49;30.40;30.00
39779;DHT22;25454;49.878;8.618;2023-06-04T11:51:53;29.70;31.70
39779;DHT22;25454;49.878;8.618;2023-06-04T11:56:53;29.40;32.00
39779;DHT22;25454;49.878;8.618;2023-06-04T12:01:54;28.20;32.30
39779;DHT22;25454;49.878;8.618;2023-06-04T12:07:00;27.70;33.00
39779;DHT22;25454;49.878;8.618;2023-06-04T12:12:06;27.30;34.50
39779;DHT22;25454;49.878;8.618;2023-06-04T12:17:08;27.20;34.40
39779;DHT22;25454;49.878;8.618;2023-06-04T12:22:09;26.50;34.90
39779;DHT22;25454;49.878;8.618;2023-06-04T12:27:09;26.80;33.50
39779;DHT22;25454;49.878;8.618;2023-06-04T12:32:10;27.30;33.40
39779;DHT22;25454;49.878;8.618;2023-06-04T12:37:15;27.70;33.00
39779;DHT22;25454;49.878;8.618;2023-06-04T12:42:17;27.10;33.30
39779;DHT22;25454;49.878;8.618;2023-06-04T12:47:19;26.40;34.20
39779;DHT22;25454;49.878;8.618;2023-06-04T12:52:21;26.10;34.60
39779;DHT22;25454;49.878;8.618;2023-06-04T12:57:21;26.30;34.40
39779;DHT22;25454;49.878;8.618;2023-06-04T13:02:22;25.90;33.70
39779;DHT22;25454;49.878;8.618;2023-06-04T13:07:22;25.70;33.60
39779;DHT22;25454;49.878;8.618;2023-06-04T13:12:23;25.70;34.50
39779;DHT22;25454;49.878;8.618;2023-06-04T13:17:24;25.90;34.50
39779;DHT22;25454;49.878;8.618;2023-06-04T13:22:24;25.60;34.50
39779;DHT22;25454;49.878;8.618;2023-06-04T13:27:25;25.40;35.10
39779;DHT22;25454;49.878;8.618;2023-06-04T13:32:25;25.60;34.70
39779;DHT22;25454;49.878;8.618;2023-06-04T13:37:26;25.70;32.70
39779;DHT22;25454;49.878;8.618;2023-06-04T13:42:26;25.50;31.40
39779;DHT22;25454;49.878;8.618;2023-06-04T13:47:27;25.40;32.80
39779;DHT22;25454;49.878;8.618;2023-06-04T13:52:27;25.60;33.40
39779;DHT22;25454;49.878;8.618;2023-06-04T13:57:31;25.60;34.40
39779;DHT22;25454;49.878;8.618;2023-06-04T14:02:31;25.80;34.50
39779;DHT22;25454;49.878;8.618;2023-06-04T14:07:32;25.90;35.00
39779;DHT22;25454;49.878;8.618;2023-06-04T14:12:33;25.90;34.70
39779;DHT22;25454;49.878;8.618;2023-06-04T14:17:34;25.80;35.10
39779;DHT22;25454;49.878;8.618;2023-06-04T14:22:38;26.00;34.80
39779;DHT22;25454;49.878;8.618;2023-06-04T14:27:39;25.90;34.90
39779;DHT22;25454;49.878;8.618;2023-06-04T14:32:39;26.10;34.90
39779;DHT22;25454;49.878;8.618;2023-06-04T14:37:40;25.80;35.70
39779;DHT22;25454;49.878;8.618;2023-06-04T14:42:41;25.50;35.70
39779;DHT22;25454;49.878;8.618;2023-06-04T14:47:41;25.60;36.40
39779;DHT22;25454;49.878;8.618;2023-06-04T14:52:42;25.30;36.10
39779;DHT22;25454;49.878;8.618;2023-06-04T14:57:43;25.10;37.40
39779;DHT22;25454;49.878;8.618;2023-06-04T15:02:43;25.30;37.00
39779;DHT22;25454;49.878;8.618;2023-06-04T15:07:45;25.50;36.50
39779;DHT22;25454;49.878;8.618;2023-06-04T15:12:45;25.40;36.20
39779;DHT22;25454;49.878;8.618;2023-06-04T15:17:47;25.00;36.40
39779;DHT22;25454;49.878;8.618;2023-06-04T15:22:47;24.70;37.00
39779;DHT22;25454;49.878;8.618;2023-06-04T15:27:48;24.90;37.20
39779;DHT22;25454;49.878;8.618;2023-06-04T15:32:48;24.70;37.30
39779;DHT22;25454;49.878;8.618;2023-06-04T15:37:49;24.50;37.80
39779;DHT22;25454;49.878;8.618;2023-06-04T15:42:49;24.40;38.00
39779;DHT22;25454;49.878;8.618;2023-06-04T15:47:51;24.30;37.70
39779;DHT22;25454;49.878;8.618;2023-06-04T15:52:51;24.30;38.50
39779;DHT22;25454;49.878;8.618;2023-06-04T15:57:52;24.40;38.60
39779;DHT22;25454;49.878;8.618;2023-06-04T16:02:53;24.50;38.50
39779;DHT22;25454;49.878;8.618;2023-06-04T16:07:53;24.60;38.20
39779;DHT22;25454;49.878;8.618;2023-06-04T16:12:54;24.70;38.20
39779;DHT22;25454;49.878;8.618;2023-06-04T16:17:54;24.70;38.00
39779;DHT22;25454;49.878;8.618;2023-06-04T16:22:55;24.70;37.30
39779;DHT22;25454;49.878;8.618;2023-06-04T16:27:56;24.70;37.40
39779;DHT22;25454;49.878;8.618;2023-06-04T16:32:56;24.90;37.90
39779;DHT22;25454;49.878;8.618;2023-06-04T16:37:57;25.00;37.70
39779;DHT22;25454;49.878;8.618;2023-06-04T16:42:58;25.00;37.80
39779;DHT22;25454;49.878;8.618;2023-06-04T16:47:58;25.00;38.50
39779;DHT22;25454;49.878;8.618;2023-06-04T16:52:59;24.80;38.50
39779;DHT22;25454;49.878;8.618;2023-06-04T16:58:00;24.70;38.70
39779;DHT22;25454;49.878;8.618;2023-06-04T17:03:01;24.70;39.00
39779;DHT22;25454;49.878;8.618;2023-06-04T17:08:01;24.60;39.30
39779;DHT22;25454;49.878;8.618;2023-06-04T17:13:02;24.70;39.60
39779;DHT22;25454;49.878;8.618;2023-06-04T17:18:03;24.50;39.40
39779;DHT22;25454;49.878;8.618;2023-06-04T17:23:24;24.40;39.90
39779;DHT22;25454;49.878;8.618;2023-06-04T17:28:25;24.30;40.40
39779;DHT22;25454;49.878;8.618;2023-06-04T17:33:26;24.20;39.70
39779;DHT22;25454;49.878;8.618;2023-06-04T17:38:27;24.20;40.30
39779;DHT22;25454;49.878;8.618;2023-06-04T17:43:28;24.10;40.60
39779;DHT22;25454;49.878;8.618;2023-06-04T17:48:28;24.00;41.30
39779;DHT22;25454;49.878;8.618;2023-06-04T17:53:29;23.90;41.50
39779;DHT22;25454;49.878;8.618;2023-06-04T17:58:30;23.80;41.70
39779;DHT22;25454;49.878;8.618;2023-06-04T18:03:31;23.60;41.80
39779;DHT22;25454;49.878;8.618;2023-06-04T18:08:31;23.50;42.50
39779;DHT22;25454;49.878;8.618;2023-06-04T18:13:32;23.30;42.50
39779;DHT22;25454;49.878;8.618;2023-06-04T18:18:33;23.30;43.30
39779;DHT22;25454;49.878;8.618;2023-06-04T18:23:33;23.20;43.20
39779;DHT22;25454;49.878;8.618;2023-06-04T18:28:34;23.00;43.50
39779;DHT22;25454;49.878;8.618;2023-06-04T18:33:35;23.00;44.00
39779;DHT22;25454;49.878;8.618;2023-06-04T18:38:38;22.80;44.30
39779;DHT22;25454;49.878;8.618;2023-06-04T18:43:39;22.70;44.60
39779;DHT22;25454;49.878;8.618;2023-06-04T18:48:39;22.50;45.00
39779;DHT22;25454;49.878;8.618;2023-06-04T18:53:40;22.40;45.40
39779;DHT22;25454;49.878;8.618;2023-06-04T18:58:41;22.30;45.70
39779;DHT22;25454;49.878;8.618;2023-06-04T19:03:45;22.10;46.10
39779;DHT22;25454;49.878;8.618;2023-06-04T19:08:45;22.00;46.40
39779;DHT22;25454;49.878;8.618;2023-06-04T19:13:46;21.80;46.70
39779;DHT22;25454;49.878;8.618;2023-06-04T19:18:46;21.70;46.90
39779;DHT22;25454;49.878;8.618;2023-06-04T19:23:47;21.50;46.90
39779;DHT22;25454;49.878;8.618;2023-06-04T19:28:48;21.40;47.20
39779;DHT22;25454;49.878;8.618;2023-06-04T19:33:48;21.20;47.30
39779;DHT22;25454;49.878;8.618;2023-06-04T19:38:49;21.10;47.90
39779;DHT22;25454;49.878;8.618;2023-06-04T19:43:49;20.90;48.30
39779;DHT22;25454;49.878;8.618;2023-06-04T19:48:50;20.70;48.50
39779;DHT22;25454;49.878;8.618;2023-06-04T19:53:51;20.60;48.70
39779;DHT22;25454;49.878;8.618;2023-06-04T19:58:51;20.50;49.70
39779;DHT22;25454;49.878;8.618;2023-06-04T20:03:52;20.30;49.40
39779;DHT22;25454;49.878;8.618;2023-06-04T20:08:53;20.20;49.60
39779;DHT22;25454;49.878;8.618;2023-06-04T20:13:53;20.00;50.10
39779;DHT22;25454;49.878;8.618;2023-06-04T20:18:54;19.90;50.30
39779;DHT22;25454;49.878;8.618;2023-06-04T20:23:54;19.80;50.80
39779;DHT22;25454;49.878;8.618;2023-06-04T20:28:55;19.60;50.90
39779;DHT22;25454;49.878;8.618;2023-06-04T20:33:56;19.60;51.40
39779;DHT22;25454;49.878;8.618;2023-06-04T20:38:57;19.40;51.30
39779;DHT22;25454;49.878;8.618;2023-06-04T20:43:58;19.30;51.50
39779;DHT22;25454;49.878;8.618;2023-06-04T20:48:58;19.20;51.80
39779;DHT22;25454;49.878;8.618;2023-06-04T20:54:01;19.10;52.00
39779;DHT22;25454;49.878;8.618;2023-06-04T20:59:02;19.00;52.30
39779;DHT22;25454;49.878;8.618;2023-06-04T21:04:02;18.90;52.50
39779;DHT22;25454;49.878;8.618;2023-06-04T21:09:05;18.80;52.80
39779;DHT22;25454;49.878;8.618;2023-06-04T21:14:06;18.70;52.80
39779;DHT22;25454;49.878;8.618;2023-06-04T21:19:06;18.70;53.00
39779;DHT22;25454;49.878;8.618;2023-06-04T21:24:07;18.70;53.00
39779;DHT22;25454;49.878;8.618;2023-06-04T21:29:10;18.60;53.10
39779;DHT22;25454;49.878;8.618;2023-06-04T21:34:11;18.50;53.30
39779;DHT22;25454;49.878;8.618;2023-06-04T21:39:12;18.50;53.70
39779;DHT22;25454;49.878;8.618;2023-06-04T21:44:12;18.40;53.90
39779;DHT22;25454;49.878;8.618;2023-06-04T21:49:13;18.20;54.20
39779;DHT22;25454;49.878;8.618;2023-06-04T21:54:13;18.20;54.60
39779;DHT22;25454;49.878;8.618;2023-06-04T21:59:14;18.00;54.80
39779;DHT22;25454;49.878;8.618;2023-06-04T22:04:14;17.90;55.20
39779;DHT22;25454;49.878;8.618;2023-06-04T22:09:15;17.90;55.50
39779;DHT22;25454;49.878;8.618;2023-06-04T22:14:16;17.70;55.70
39779;DHT22;25454;49.878;8.618;2023-06-04T22:19:17;17.70;56.00
39779;DHT22;25454;49.878;8.618;2023-06-04T22:24:17;17.60;56.40
39779;DHT22;25454;49.878;8.618;2023-06-04T22:29:18;17.50;56.70
39779;DHT22;25454;49.878;8.618;2023-06-04T22:34:19;17.40;56.90
39779;DHT22;25454;49.878;8.618;2023-06-04T22:39:20;17.30;57.20
39779;DHT22;25454;49.878;8.618;2023-06-04T22:44:20;17.20;57.60
39779;DHT22;25454;49.878;8.618;2023-06-04T22:49:21;17.10;57.80
39779;DHT22;25454;49.878;8.618;2023-06-04T22:54:22;17.00;57.90
39779;DHT22;25454;49.878;8.618;2023-06-04T22:59:22;17.00;58.30
39779;DHT22;25454;49.878;8.618;2023-06-04T23:04:23;16.90;58.50
39779;DHT22;25454;49.878;8.618;2023-06-04T23:09:23;16.80;58.60
39779;DHT22;25454;49.878;8.618;2023-06-04T23:14:24;16.70;58.70
39779;DHT22;25454;49.878;8.618;2023-06-04T23:19:25;16.60;59.00
39779;DHT22;25454;49.878;8.618;2023-06-04T23:24:25;16.50;59.00
39779;DHT22;25454;49.878;8.618;2023-06-04T23:29:27;16.50;59.30
39779;DHT22;25454;49.878;8.618;2023-06-04T23:34:27;16.40;59.70
39779;DHT22;25454;49.878;8.618;2023-06-04T23:39:28;16.30;60.00
39779;DHT22;25454;49.878;8.618;2023-06-04T23:44:28;16.10;60.00
39779;DHT22;25454;49.878;8.618;2023-06-04T23:49:29;16.10;60.40
39779;DHT22;25454;49.878;8.618;2023-06-04T23:54:29;16.10;60.80
39779;DHT22;25454;49.878;8.618;2023-06-04T23:59:30;16.00;61.10
